Latest Weather Observations for Beerburrum

IDQ60801

Issued at 11:42 pm EST Monday 19 November 2018 (issued every 10 minutes, with the page automatically refreshed every 10 minutes)

About weather observations | Map of weather stations | Latest weather observations for QLD | Other Formats
Station Details ID: 040284 Name: BEERBURRUM FOREST STATION Lat: -26.96 Lon: 152.96 Height: 48.0 m
Data from the previous 72 hours. | See also: Recent months at Beerburrum
Date/Time
EST
Temp
°C
App
Temp
°C
Dew
Point
°C
Rel
Hum
%
Delta-T
°C
Wind Press
QNH
hPa
Press
MSL
hPa
Rain since
9am
mm
Dir  Spd
km/h
Gust
km/h
Spd
kts
Gust
kts
19/11:30pm 18.6 20.3 15.1 80 2.0 CALM 0 0 0 0 - - 0.0
19/11:00pm 18.7 20.1 14.4 76 2.5 CALM 0 0 0 0 - - 0.0
19/10:30pm 18.8 20.2 14.5 76 2.5 CALM 0 0 0 0 - - 0.0
19/10:00pm 18.9 20.5 15.0 78 2.3 CALM 0 0 0 0 - - 0.0
19/09:30pm 18.7 20.5 15.4 81 1.9 CALM 0 0 0 0 - - 0.0
19/09:00pm 18.4 19.6 13.9 75 2.6 CALM 0 0 0 0 - - 0.0
19/08:30pm 18.7 20.0 14.0 74 2.7 CALM 0 0 0 0 - - 0.0
19/08:00pm 18.8 19.9 13.6 72 3.0 CALM 0 0 0 0 - - 0.0
19/07:30pm 19.3 20.5 13.7 70 3.2 CALM 0 2 0 1 - - 0.0
19/07:00pm 20.7 21.9 13.9 65 3.9 CALM 0 6 0 3 - - 0.0
19/06:30pm 21.6 22.4 13.8 61 4.5 ESE 2 7 1 4 - - 0.0
19/06:00pm 22.3 22.2 13.4 57 5.1 ESE 6 9 3 5 - - 0.0
19/05:30pm 23.2 22.7 12.5 51 6.1 E 7 13 4 7 - - 0.0
19/05:00pm 23.7 22.9 11.7 47 6.8 E 7 17 4 9 - - 0.0
19/04:30pm 24.8 24.2 12.4 46 7.1 E 7 11 4 6 - - 0.0
19/04:00pm 25.4 24.5 11.2 41 8.0 ESE 7 15 4 8 - - 0.0
19/03:30pm 25.6 24.8 11.7 42 7.9 E 7 15 4 8 - - 0.0
19/03:00pm 25.9 25.1 11.6 40 8.2 E 7 13 4 7 - - 0.0
19/02:30pm 25.5 23.8 11.3 41 8.0 SE 11 26 6 14 - - 0.0
19/02:00pm 24.8 23.2 10.3 40 8.0 SSE 9 19 5 10 - - 0.0
19/01:30pm 24.6 24.0 12.2 46 7.1 SE 7 17 4 9 - - 0.0
19/01:00pm 26.1 26.0 13.9 47 7.2 SSE 7 15 4 8 - - 0.0
19/12:30pm 25.3 24.8 13.8 49 6.8 SE 9 24 5 13 - - 0.0
19/12:00pm 24.3 23.0 12.6 48 6.7 S 11 20 6 11 - - 0.0
19/11:30am 25.6 24.9 13.1 46 7.3 SE 9 20 5 11 - - 0.0
19/11:00am 25.3 24.3 12.2 44 7.5 SSE 9 17 5 9 - - 0.0
19/10:30am 24.4 23.0 11.0 43 7.5 SSE 9 22 5 12 - - 0.0
19/10:00am 24.8 23.3 10.7 41 7.9 S 9 20 5 11 - - 0.0
19/09:30am 24.7 23.5 11.6 44 7.4 SSE 9 19 5 10 - - 0.0
19/09:00am 24.4 23.5 11.4 44 7.3 SE 7 13 4 7 - - 1.2
19/08:30am 22.9 21.4 11.9 50 6.2 S 11 20 6 11 - - 1.2
19/08:00am 22.9 22.8 13.9 57 5.3 SSE 7 17 4 9 - - 1.2
19/07:30am 22.3 22.7 15.4 65 4.1 S 7 15 4 8 - - 1.2
19/07:00am 21.0 21.6 15.3 70 3.4 SSW 6 11 3 6 - - 1.2
19/06:30am 19.5 21.6 17.1 86 1.5 SW 2 7 1 4 - - 1.2
19/06:00am 17.6 19.6 16.1 91 0.9 CALM 0 0 0 0 - - 1.2
19/05:30am 17.4 19.4 16.1 92 0.8 CALM 0 0 0 0 - - 1.2
19/05:00am 17.0 18.9 15.7 92 0.8 CALM 0 0 0 0 - - 1.2
19/04:30am 16.8 18.6 15.5 92 0.8 CALM 0 0 0 0 - - 1.2
19/04:00am 16.5 18.1 15.0 91 0.9 CALM 0 0 0 0 - - 1.2
19/03:30am 16.6 18.3 15.1 91 0.9 CALM 0 0 0 0 - - 1.2
19/03:00am 16.8 18.5 15.2 90 0.9 CALM 0 0 0 0 - - 1.2
19/02:30am 17.2 19.0 15.5 90 1.0 CALM 0 6 0 3 - - 1.2
19/02:00am 17.5 19.5 16.0 91 0.9 CALM 0 0 0 0 - - 1.2
19/01:30am 17.5 19.6 16.2 92 0.8 CALM 0 0 0 0 - - 1.2
19/01:00am 17.6 19.6 16.1 91 0.9 CALM 0 0 0 0 - - 1.2
19/12:30am 17.6 19.6 16.1 91 0.9 CALM 0 0 0 0 - - 1.2
19/12:00am 17.5 19.4 15.8 90 1.0 CALM 0 0 0 0 - - 1.2
 
Date/Time
EST
Temp
°C
App
Temp
°C
Dew
Point
°C
Rel
Hum
%
Delta-T
°C
Wind Press
QNH
hPa
Press
MSL
hPa
Rain since
9am
mm
Dir  Spd
km/h
Gust
km/h
Spd
kts
Gust
kts
18/11:30pm 17.9 19.6 16.1 89 1.1 S 2 6 1 3 - - 1.2
18/11:00pm 18.1 20.3 16.6 91 0.9 CALM 0 6 0 3 - - 1.2
18/10:30pm 18.2 20.0 16.5 90 1.0 SW 2 6 1 3 - - 1.2
18/10:00pm 18.4 19.9 16.7 90 1.0 SW 4 11 2 6 - - 1.0
18/09:30pm 19.0 20.0 16.8 87 1.3 SSW 7 20 4 11 - - 0.4
18/09:00pm 19.3 21.8 17.3 88 1.2 CALM 0 0 0 0 - - 0.4
18/08:30pm 19.1 21.4 16.7 86 1.4 CALM 0 0 0 0 - - 0.4
18/08:00pm 19.2 21.4 16.6 85 1.6 CALM 0 0 0 0 - - 0.4
18/07:30pm 20.8 22.2 15.4 71 3.2 N 2 11 1 6 - - 0.2
18/07:00pm 21.7 22.1 14.8 65 4.1 E 6 9 3 5 - - 0.2
18/06:30pm 21.7 22.4 14.6 64 4.2 SSE 4 11 2 6 - - 0.2
18/06:00pm 22.1 22.0 14.0 60 4.7 E 7 15 4 8 - - 0.2
18/05:30pm 22.5 22.6 14.4 60 4.8 SE 7 11 4 6 - - 0.2
18/05:00pm 22.9 22.4 13.9 57 5.3 SE 9 17 5 9 - - 0.2
18/04:30pm 23.3 22.8 13.8 55 5.6 SSE 9 19 5 10 - - 0.2
18/04:00pm 23.7 23.1 13.6 53 5.9 S 9 20 5 11 - - 0.2
18/03:30pm 24.5 23.1 13.4 50 6.5 SSE 13 24 7 13 - - 0.2
18/03:00pm 25.2 25.0 14.6 51 6.3 SSE 9 20 5 11 - - 0.2
18/02:30pm 25.4 25.0 15.1 53 6.2 SSE 11 20 6 11 - - 0.2
18/02:00pm 25.2 24.4 14.0 49 6.6 ESE 11 20 6 11 - - 0.2
18/01:30pm 25.6 25.5 15.9 55 5.9 S 11 20 6 11 - - 0.2
18/01:00pm 24.9 25.0 15.5 56 5.7 SE 9 24 5 13 - - 0.2
18/12:30pm 25.0 25.1 16.4 59 5.3 SSE 11 28 6 15 - - 0.2
18/12:00pm 23.6 22.8 15.1 59 5.1 SSE 13 26 7 14 - - 0.2
18/11:30am 23.8 24.0 16.8 65 4.3 SSE 11 20 6 11 - - 0.2
18/11:00am 23.5 23.7 16.8 66 4.1 SSE 11 28 6 15 - - 0.2
18/10:30am 21.9 23.0 18.1 79 2.4 S 9 19 5 10 - - 0.2
18/10:00am 21.4 20.8 16.6 74 2.9 S 15 30 8 16 - - 0.0
18/09:30am 23.7 24.0 17.0 66 4.1 S 11 22 6 12 - - 0.0
18/09:00am 23.7 23.9 16.7 65 4.3 S 11 24 6 13 - - 7.2
18/08:30am 22.6 23.0 17.3 72 3.3 S 11 22 6 12 - - 7.2
18/08:00am 22.0 23.2 18.2 79 2.4 S 9 20 5 11 - - 7.2
18/07:30am 20.9 22.3 17.9 83 1.9 SSW 7 13 4 7 - - 7.2
18/07:00am 20.1 21.6 17.7 86 1.5 SSW 6 15 3 8 - - 7.2
18/06:30am 19.5 21.6 18.2 92 0.8 SSW 4 11 2 6 - - 7.2
18/06:00am 18.5 20.6 17.3 93 0.7 SW 2 7 1 4 - - 7.2
18/05:30am 17.7 19.8 16.2 91 0.9 CALM 0 0 0 0 - - 7.2
18/05:00am 17.7 19.8 16.2 91 0.9 CALM 0 0 0 0 - - 7.2
18/04:30am 18.1 19.6 16.6 91 0.9 SSW 4 6 2 3 - - 7.2
18/04:00am 18.6 21.1 17.3 92 0.8 CALM 0 0 0 0 - - 7.2
18/03:30am 18.7 20.9 17.4 92 0.8 SSW 2 6 1 3 - - 7.2
18/03:00am 18.7 21.3 17.4 92 0.8 CALM 0 6 0 3 - - 7.2
18/02:30am 18.9 20.8 17.6 92 0.8 SSW 4 11 2 6 - - 7.2
18/02:00am 19.0 21.0 17.8 93 0.7 SW 4 9 2 5 - - 7.2
18/01:30am 18.7 21.3 17.5 93 0.7 CALM 0 0 0 0 - - 7.2
18/01:00am 18.5 20.3 17.3 93 0.7 SSW 4 6 2 3 - - 7.2
18/12:30am 18.2 20.6 16.9 92 0.8 CALM 0 0 0 0 - - 7.2
18/12:00am 18.2 20.5 16.7 91 0.9 CALM 0 0 0 0 - - 7.2
 
Date/Time
EST
Temp
°C
App
Temp
°C
Dew
Point
°C
Rel
Hum
%
Delta-T
°C
Wind Press
QNH
hPa
Press
MSL
hPa
Rain since
9am
mm
Dir  Spd
km/h
Gust
km/h
Spd
kts
Gust
kts
17/11:30pm 18.6 21.1 17.3 92 0.8 CALM 0 0 0 0 - - 7.2
17/11:00pm 18.5 20.9 17.0 91 0.9 CALM 0 0 0 0 - - 7.2
17/10:30pm 18.8 21.4 17.5 92 0.8 CALM 0 0 0 0 - - 7.0
17/10:00pm 18.9 21.5 17.6 92 0.8 CALM 0 0 0 0 - - 7.0
17/09:30pm 18.5 20.9 17.0 91 0.9 CALM 0 0 0 0 - - 7.0
17/09:00pm 18.6 20.7 17.1 91 0.9 SSW 2 6 1 3 - - 7.0
17/08:30pm 18.5 20.5 17.0 91 0.9 SW 2 7 1 4 - - 7.0
17/08:00pm 18.6 19.7 17.1 91 0.9 SSW 7 17 4 9 - - 7.0
17/07:30pm 19.0 19.2 16.8 87 1.3 NNE 11 20 6 11 - - 7.0
17/07:00pm 19.3 19.0 17.4 89 1.2 N 15 26 8 14 - - 7.0
17/06:30pm 20.4 22.2 18.2 87 1.4 NNW 6 13 3 7 - - 5.2
17/06:00pm 21.2 23.3 19.3 89 1.2 N 7 15 4 8 - - 3.0
17/05:30pm 21.7 23.6 19.8 89 1.2 N 9 15 5 8 - - 1.8
17/05:00pm 22.2 25.3 19.4 84 1.8 SSW 2 7 1 4 - - 0.8
17/04:30pm 23.7 25.5 18.4 72 3.3 ESE 6 11 3 6 - - 0.0
17/04:00pm 24.6 25.8 17.3 64 4.5 E 7 13 4 7 - - 0.0
17/03:30pm 25.7 26.3 16.8 58 5.5 ENE 9 17 5 9 - - 0.0
17/03:00pm 28.7 29.6 17.6 51 7.0 ENE 9 22 5 12 - - 0.0
17/02:30pm 28.7 29.0 16.9 48 7.4 ENE 11 22 6 12 - - 0.0
17/02:00pm 28.4 28.8 16.3 47 7.5 ENE 9 19 5 10 - - 0.0
17/01:30pm 28.9 29.5 16.8 48 7.6 E 9 15 5 8 - - 0.0
17/01:00pm 28.8 29.4 16.7 48 7.6 NNE 9 19 5 10 - - 0.0
17/12:30pm 28.9 29.7 17.4 49 7.3 NNE 9 19 5 10 - - 0.0
17/12:00pm 28.6 29.5 17.5 51 7.0 NNE 9 17 5 9 - - 0.0
17/11:30am 27.9 28.8 16.5 50 7.1 E 7 13 4 7 - - 0.0
17/11:00am 27.5 27.8 16.1 49 7.0 NNE 9 17 5 9 - - 0.0
17/10:30am 27.4 28.0 16.7 52 6.7 N 9 15 5 8 - - 0.0
17/10:00am 28.2 28.9 16.1 47 7.5 ENE 7 13 4 7 - - 0.0
17/09:30am 25.9 26.7 15.9 54 6.1 N 6 11 3 6 - - 0.0
17/09:00am 25.7 26.5 16.3 56 5.8 NNE 7 13 4 7 - - 0.0
17/08:30am 27.1 28.7 17.8 56 5.9 NNW 6 9 3 5 - - 0.0
17/08:00am 24.4 25.1 16.1 60 5.1 N 7 13 4 7 - - 0.0
17/07:30am 24.8 26.6 17.5 64 4.6 NNW 4 11 2 6 - - 0.0
17/07:00am 23.2 26.3 18.7 76 2.8 CALM 0 6 0 3 - - 0.0
17/06:30am 20.9 23.7 17.9 83 1.9 CALM 0 0 0 0 - - 0.0
17/06:00am 18.5 21.0 17.2 92 0.8 CALM 0 0 0 0 - - 0.0
17/05:30am 17.2 19.1 15.7 91 0.9 CALM 0 0 0 0 - - 0.0
17/05:00am 17.1 18.9 15.6 91 0.9 CALM 0 0 0 0 - - 0.0
17/04:30am 17.2 18.9 15.2 88 1.2 CALM 0 0 0 0 - - 0.0
17/04:00am 17.5 19.3 15.5 88 1.2 CALM 0 0 0 0 - - 0.0
17/03:30am 18.0 19.9 15.8 87 1.3 CALM 0 0 0 0 - - 0.0
17/03:00am 18.7 20.9 16.5 87 1.3 CALM 0 0 0 0 - - 0.0
17/02:30am 18.7 20.9 16.5 87 1.3 CALM 0 0 0 0 - - 0.0
17/02:00am 18.5 20.7 16.5 88 1.2 CALM 0 0 0 0 - - 0.0
17/01:30am 18.2 20.3 16.2 88 1.2 CALM 0 0 0 0 - - 0.0
17/01:00am 18.6 20.7 16.2 86 1.4 CALM 0 0 0 0 - - 0.0
17/12:30am 18.9 21.1 16.5 86 1.4 CALM 0 0 0 0 - - 0.0
17/12:00am 18.7 21.0 16.7 88 1.2 CALM 0 0 0 0 - - 0.0

Other Formats:

Comma delimited format used in spreadsheet applications
http://www.bom.gov.au/fwo/IDQ60801/IDQ60801.95566.axf

JavaScript Object Notation format (JSON) in row-major order
http://www.bom.gov.au/fwo/IDQ60801/IDQ60801.95566.json